Ascutney, Vermont
Current Conditions -  °F | °C
As of 3:16 AM on Friday 28 Nov 2014 (Local Time) from KLEB Reporting Station
Light Snow Light Snow  
Wind Chill: 25°   Ceiling: 4000
Heat Index: 25°   Visibility: 3mi
Dew Point: 22°   Wind: 0mph
Humidity: 88%   Direction: NA
Pressure: 30"   Gusts: NA
Location:  43.41°N, 72.41°W
Report Text: KLEB 280816Z 00000KT 3SM -SN BR OVC040 M04/M06 A3000 RMK AO2 SNB0758 P0000 T10391056
Loading
Personal Weather Stations






























Interactive Weather Map New forecast layout! Learn more

10-Day Weather Forecast

Advertisements
Track Severe Weather on mobile